Time;durP1;ratioP1;P1;durP2;ratioP2;P2;SDS_P1;SDS_P2;PMS_P1;PMS_P2;Temp;Humidity;BMP_temperature;BMP_pressure;BME280_temperature;BME280_humidity;BME280_pressure;Samples;Min_cycle;Max_cycle;Signal;HPM_P1;HPM_P2
2021/06/11 00:00:18;;;;;;;7.67;6.97;;;;;;;16.60;100.00;98605.14;3915840;75;43476;-21
2021/06/11 00:05:24;;;;;;;7.15;6.45;;;;;;;16.61;100.00;98604.11;3899651;74;43257;-21
2021/06/11 00:10:31;;;;;;;8.15;6.95;;;;;;;16.58;100.00;98608.58;3874675;76;44130;-20
2021/06/11 00:15:37;;;;;;;7.35;6.50;;;;;;;16.52;100.00;98609.38;3880880;75;43941;-21
2021/06/11 00:20:43;;;;;;;7.67;6.60;;;;;;;16.35;100.00;98614.73;3864068;75;44057;-22
2021/06/11 00:25:49;;;;;;;6.90;6.22;;;;;;;16.29;100.00;98606.84;3877036;75;43137;-22
2021/06/11 00:30:55;;;;;;;8.00;6.40;;;;;;;16.22;100.00;98612.73;3878866;75;44062;-22
2021/06/11 00:36:01;;;;;;;7.42;6.62;;;;;;;16.14;100.00;98607.73;3876701;74;43665;-22
2021/06/11 00:41:08;;;;;;;8.00;7.25;;;;;;;16.07;100.00;98610.04;3876973;75;43852;-22
2021/06/11 00:46:13;;;;;;;7.28;6.60;;;;;;;16.05;100.00;98606.70;3878877;74;43305;-22
2021/06/11 00:51:22;;;;;;;8.15;7.35;;;;;;;15.99;100.00;98607.78;3870673;75;43882;-22
2021/06/11 00:56:28;;;;;;;8.00;7.15;;;;;;;15.93;100.00;98611.78;3885198;75;43364;-22
2021/06/11 01:01:34;;;;;;;6.75;6.10;;;;;;;15.90;100.00;98609.44;3869287;74;44048;-22
2021/06/11 01:06:42;;;;;;;6.62;6.00;;;;;;;15.82;100.00;98607.64;3885149;74;43700;-22
2021/06/11 01:11:48;;;;;;;9.33;6.97;;;;;;;15.75;100.00;98608.09;3910510;75;44052;-22
2021/06/11 01:16:54;;;;;;;7.83;6.97;;;;;;;15.76;100.00;98608.41;3900268;74;43470;-21
2021/06/11 01:22:06;;;;;;;8.48;7.67;;;;;;;15.73;100.00;98604.21;3885114;75;43328;-21
2021/06/11 01:32:25;;;;;;;8.08;7.05;;;;;;;15.71;100.00;98609.81;4006348;73;27251;-19
2021/06/11 01:37:34;;;;;;;7.95;7.25;;;;;;;15.61;100.00;98609.27;3949260;74;43327;-20
2021/06/11 01:42:42;;;;;;;8.38;7.58;;;;;;;15.59;100.00;98604.54;3940109;74;43710;-20
2021/06/11 01:47:51;;;;;;;9.15;8.10;;;;;;;15.55;100.00;98605.97;3918619;74;44052;-21
2021/06/11 01:52:59;;;;;;;8.90;8.03;;;;;;;15.50;100.00;98603.83;3931734;74;43068;-20
2021/06/11 01:58:07;;;;;;;8.18;7.37;;;;;;;15.51;100.00;98604.16;3924309;74;43305;-20
2021/06/11 02:03:16;;;;;;;9.18;7.95;;;;;;;15.48;100.00;98603.66;3945251;74;43346;-20
2021/06/11 02:08:23;;;;;;;9.53;8.40;;;;;;;15.46;100.00;98605.75;3941814;74;43478;-21
2021/06/11 02:13:30;;;;;;;10.95;9.38;;;;;;;15.43;100.00;98602.05;3956847;73;44149;-21
2021/06/11 02:18:37;;;;;;;9.98;8.78;;;;;;;15.42;100.00;98606.62;3952629;73;44417;-21
2021/06/11 02:23:43;;;;;;;9.85;8.38;;;;;;;15.41;100.00;98600.86;3950317;74;43980;-21
2021/06/11 02:28:51;;;;;;;9.58;8.53;;;;;;;15.38;100.00;98599.90;3938791;74;43986;-21
2021/06/11 02:33:58;;;;;;;10.08;8.73;;;;;;;15.35;100.00;98598.37;3932187;75;43340;-22
2021/06/11 02:39:06;;;;;;;10.72;9.30;;;;;;;15.33;100.00;98600.47;3824270;75;43758;-21
2021/06/11 02:44:13;;;;;;;9.55;8.58;;;;;;;15.32;100.00;98602.84;3923222;74;43563;-21
2021/06/11 02:49:23;;;;;;;12.93;10.53;;;;;;;15.32;100.00;98600.63;3920201;75;43714;-23
2021/06/11 02:54:33;;;;;;;11.12;10.03;;;;;;;15.26;100.00;98594.08;3820979;76;44033;-22
2021/06/11 02:59:42;;;;;;;10.53;9.20;;;;;;;15.22;100.00;98600.41;3912421;75;43995;-21
2021/06/11 03:04:49;;;;;;;11.18;9.20;;;;;;;15.21;100.00;98591.11;3911255;74;43419;-21
2021/06/11 03:09:58;;;;;;;12.98;11.00;;;;;;;15.21;100.00;98598.72;3828669;77;44050;-21
2021/06/11 03:15:06;;;;;;;12.28;10.80;;;;;;;15.20;100.00;98605.70;3909830;74;44100;-21
2021/06/11 03:20:17;;;;;;;12.33;11.00;;;;;;;15.15;100.00;98606.27;3926815;75;44028;-21
2021/06/11 03:25:28;;;;;;;9.95;8.80;;;;;;;15.10;100.00;98601.90;3919164;74;44073;-21
2021/06/11 03:30:36;;;;;;;10.43;9.40;;;;;;;15.11;100.00;98604.94;3928475;75;43407;-21
2021/06/11 03:35:45;;;;;;;12.37;9.93;;;;;;;15.13;100.00;98612.39;3934424;74;44191;-21
2021/06/11 03:40:52;;;;;;;12.25;10.75;;;;;;;15.15;100.00;98607.63;3903421;74;44067;-21
2021/06/11 03:46:01;;;;;;;11.57;10.38;;;;;;;15.16;100.00;98607.09;3941565;75;43953;-21
2021/06/11 03:51:08;;;;;;;13.03;11.28;;;;;;;15.13;100.00;98601.53;3947457;74;43729;-21
2021/06/11 03:56:17;;;;;;;11.75;10.55;;;;;;;15.18;100.00;98601.80;3954298;74;44179;-21
2021/06/11 04:01:27;;;;;;;13.38;11.97;;;;;;;15.20;100.00;98605.17;3948231;75;43665;-21
2021/06/11 04:06:37;;;;;;;14.43;11.03;;;;;;;15.18;100.00;98603.16;3952913;74;43460;-21
2021/06/11 04:11:47;;;;;;;17.80;13.53;;;;;;;15.08;100.00;98600.73;3942051;74;44054;-21
2021/06/11 04:16:57;;;;;;;14.93;13.40;;;;;;;15.06;100.00;98602.79;3954680;75;43440;-21
2021/06/11 04:22:07;;;;;;;15.08;12.23;;;;;;;15.06;100.00;98597.36;3952272;74;43689;-21
2021/06/11 04:27:14;;;;;;;14.65;13.15;;;;;;;15.02;100.00;98602.82;3953288;74;43681;-21
2021/06/11 04:32:20;;;;;;;15.38;12.65;;;;;;;15.06;100.00;98608.72;3931587;74;44070;-21
2021/06/11 04:37:26;;;;;;;13.62;12.23;;;;;;;15.12;100.00;98609.34;3920894;75;44738;-21
2021/06/11 04:42:33;;;;;;;14.35;12.58;;;;;;;15.20;100.00;98607.06;3915140;74;43709;-21
2021/06/11 04:47:40;;;;;;;14.07;12.58;;;;;;;15.25;100.00;98612.75;3909612;75;43712;-20
2021/06/11 04:52:46;;;;;;;13.28;11.85;;;;;;;15.31;100.00;98612.02;3911782;74;43716;-21
2021/06/11 04:57:53;;;;;;;15.25;12.58;;;;;;;15.36;100.00;98607.38;3916009;75;44093;-22
2021/06/11 05:03:00;;;;;;;14.78;13.28;;;;;;;15.40;100.00;98619.03;3923568;75;43690;-20
2021/06/11 05:08:07;;;;;;;15.30;13.55;;;;;;;15.48;100.00;98615.88;3826270;77;44895;-20
2021/06/11 05:13:13;;;;;;;15.08;13.28;;;;;;;15.52;100.00;98617.20;3908186;74;43344;-20
2021/06/11 05:18:19;;;;;;;16.20;13.80;;;;;;;15.59;100.00;98610.50;3825673;76;44086;-20
2021/06/11 05:23:25;;;;;;;17.25;13.78;;;;;;;15.67;100.00;98620.75;3918805;74;43493;-21
2021/06/11 05:28:32;;;;;;;16.52;14.47;;;;;;;15.76;100.00;98607.88;3923730;74;43329;-20
2021/06/11 05:33:39;;;;;;;15.40;13.80;;;;;;;15.90;100.00;98618.45;3899989;75;44095;-21
2021/06/11 05:38:45;;;;;;;15.32;13.72;;;;;;;16.07;100.00;98615.48;3917569;75;44083;-21
2021/06/11 05:43:52;;;;;;;15.60;13.62;;;;;;;16.19;100.00;98618.02;3913259;74;44044;-21
2021/06/11 05:48:58;;;;;;;16.47;14.30;;;;;;;16.31;100.00;98624.62;3923621;75;43715;-21
2021/06/11 05:54:04;;;;;;;17.17;14.73;;;;;;;16.44;100.00;98625.80;3823934;77;44018;-21
2021/06/11 05:59:10;;;;;;;16.65;14.00;;;;;;;16.61;100.00;98624.52;3921788;74;43310;-21
2021/06/11 06:04:16;;;;;;;16.73;14.78;;;;;;;16.78;100.00;98625.58;3824215;77;43975;-21
2021/06/11 06:09:22;;;;;;;14.93;13.43;;;;;;;16.95;100.00;98631.61;3921043;75;43462;-21
2021/06/11 06:19:42;;;;;;;16.35;14.60;;;;;;;17.35;100.00;98617.42;3996917;72;27517;-19
2021/06/11 06:24:48;;;;;;;16.05;14.47;;;;;;;17.51;100.00;98624.45;3927932;74;44064;-22
2021/06/11 06:29:54;;;;;;;16.50;14.85;;;;;;;17.72;100.00;98620.76;3930302;74;43288;-22
2021/06/11 06:35:00;;;;;;;16.57;14.60;;;;;;;17.92;100.00;98614.56;3931744;75;44737;-21
2021/06/11 06:40:08;;;;;;;18.48;15.78;;;;;;;18.13;100.00;98613.59;3922425;74;43721;-22
2021/06/11 06:45:19;;;;;;;17.25;15.50;;;;;;;18.38;100.00;98608.42;3924981;75;43455;-20
2021/06/11 06:50:23;;;;;;;18.87;15.58;;;;;;;18.54;100.00;98611.27;3930028;74;44048;-20
2021/06/11 06:55:30;;;;;;;17.67;15.58;;;;;;;18.71;100.00;98611.70;3924244;74;43392;-20
2021/06/11 07:00:35;;;;;;;17.20;15.25;;;;;;;18.93;100.00;98614.21;3919658;74;43976;-21
2021/06/11 07:05:41;;;;;;;17.10;15.40;;;;;;;19.07;100.00;98611.83;3923146;74;43677;-22
2021/06/11 07:10:47;;;;;;;17.12;15.35;;;;;;;19.21;100.00;98612.63;3914919;74;44090;-21
2021/06/11 07:15:53;;;;;;;16.23;14.50;;;;;;;19.37;100.00;98607.23;3924174;74;43356;-21
2021/06/11 07:20:59;;;;;;;17.37;15.05;;;;;;;19.50;100.00;98608.25;3901457;74;43575;-21
2021/06/11 07:26:06;;;;;;;16.70;14.85;;;;;;;19.66;100.00;98604.20;3891741;74;43278;-21
2021/06/11 07:31:13;;;;;;;16.23;14.30;;;;;;;19.83;100.00;98610.02;3891471;75;43726;-22
2021/06/11 07:36:19;;;;;;;14.45;11.50;;;;;;;19.93;100.00;98600.03;3899848;74;43713;-21
2021/06/11 07:41:26;;;;;;;13.32;11.93;;;;;;;20.11;100.00;98600.13;3903762;75;44701;-22
2021/06/11 07:46:36;;;;;;;12.60;11.38;;;;;;;20.29;100.00;98600.76;3882835;74;43295;-21
2021/06/11 07:51:42;;;;;;;13.50;12.18;;;;;;;20.57;100.00;98596.79;3759617;77;43689;-22
2021/06/11 07:56:48;;;;;;;12.00;10.40;;;;;;;20.67;100.00;98589.45;3764013;77;44031;-22
2021/06/11 08:01:54;;;;;;;15.63;10.80;;;;;;;20.83;100.00;98598.19;3762640;77;43663;-21
2021/06/11 08:07:00;;;;;;;12.70;11.15;;;;;;;21.04;100.00;98590.11;3692803;79;44055;-23
2021/06/11 08:12:08;;;;;;;10.50;9.10;;;;;;;21.14;100.00;98587.69;3763184;77;44178;-21
2021/06/11 08:17:15;;;;;;;10.93;8.13;;;;;;;21.38;99.42;98586.48;3771167;77;43758;-20
2021/06/11 08:22:21;;;;;;;7.60;6.70;;;;;;;21.49;93.51;98593.95;3790959;77;44788;-20
2021/06/11 08:27:27;;;;;;;8.75;7.33;;;;;;;21.79;87.62;98588.25;3785963;77;43437;-22
2021/06/11 08:32:33;;;;;;;9.70;8.70;;;;;;;21.97;80.65;98582.75;3787121;78;44045;-22
2021/06/11 08:37:39;;;;;;;9.18;8.28;;;;;;;21.94;83.99;98583.20;3785992;77;42913;-22
2021/06/11 08:42:47;;;;;;;7.83;7.03;;;;;;;22.17;78.22;98586.56;3785065;78;43686;-22
2021/06/11 08:53:07;;;;;;;7.53;6.83;;;;;;;22.51;74.10;98578.42;3957489;73;27504;-20
2021/06/11 08:58:13;;;;;;;6.70;6.00;;;;;;;22.55;73.35;98586.47;3917069;74;44019;-22
2021/06/11 09:03:21;;;;;;;7.50;6.80;;;;;;;22.76;73.35;98583.16;3926483;75;43448;-21
2021/06/11 09:08:28;;;;;;;8.20;7.00;;;;;;;22.63;74.47;98582.85;3926146;75;43245;-21
2021/06/11 09:13:34;;;;;;;7.83;5.05;;;;;;;22.62;71.70;98585.30;3927437;74;43687;-21
2021/06/11 09:18:52;;;;;;;5.50;4.45;;;;;;;22.89;61.48;98580.73;3923632;75;43669;-21
2021/06/11 09:24:19;;;;;;;4.28;3.87;;;;;;;23.03;60.63;98590.13;3911636;75;43467;-21
2021/06/11 09:29:26;;;;;;;4.87;4.10;;;;;;;23.12;58.79;98591.43;3934443;74;44653;-21
2021/06/11 09:34:31;;;;;;;4.35;3.95;;;;;;;23.29;55.32;98601.72;3927690;75;43389;-21
2021/06/11 09:39:46;;;;;;;4.55;4.03;;;;;;;23.31;55.63;98598.19;3940947;75;44145;-21
2021/06/11 09:44:57;;;;;;;6.95;4.45;;;;;;;23.46;51.91;98601.30;3913528;74;43165;-21
2021/06/11 09:50:11;;;;;;;5.08;4.12;;;;;;;23.56;54.74;98610.31;3923591;75;43152;-21
2021/06/11 09:55:26;;;;;;;4.87;4.37;;;;;;;23.68;55.67;98604.25;3890779;75;43341;-21
2021/06/11 10:00:33;;;;;;;6.75;4.37;;;;;;;23.55;53.93;98608.64;3921062;75;43884;-21
2021/06/11 10:05:41;;;;;;;4.92;4.40;;;;;;;23.75;55.34;98601.89;3907194;74;43958;-21
2021/06/11 10:10:48;;;;;;;4.80;4.33;;;;;;;23.80;56.50;98593.76;3900527;75;43499;-20
2021/06/11 10:15:57;;;;;;;4.65;4.22;;;;;;;24.01;57.14;98593.64;3900934;74;44138;-21
2021/06/11 10:21:03;;;;;;;4.40;3.90;;;;;;;24.08;57.63;98601.23;3898894;75;43447;-21
2021/06/11 10:26:11;;;;;;;5.90;3.55;;;;;;;23.92;53.39;98604.71;3900896;74;43838;-21
2021/06/11 10:31:19;;;;;;;4.72;3.83;;;;;;;23.77;52.27;98607.44;3903215;75;43132;-21
2021/06/11 10:36:42;;;;;;;3.95;3.50;;;;;;;23.87;55.10;98592.25;3887497;74;43413;-20
2021/06/11 10:47:27;;;;;;;4.35;3.40;;;;;;;24.07;49.62;98596.80;4005800;72;27107;-19
2021/06/11 10:52:35;;;;;;;3.77;3.40;;;;;;;24.26;54.19;98600.19;3930189;75;43648;-21
2021/06/11 10:57:41;;;;;;;4.62;3.35;;;;;;;24.29;53.17;98591.41;3940263;73;44014;-21
2021/06/11 11:02:52;;;;;;;4.28;3.80;;;;;;;24.35;51.40;98591.52;3942483;75;43363;-21
2021/06/11 11:08:00;;;;;;;3.90;3.30;;;;;;;24.31;50.46;98585.13;3920702;73;43691;-21
2021/06/11 11:18:23;;;;;;;4.42;4.03;;;;;;;24.79;46.52;98584.87;4001748;72;27235;-19
2021/06/11 11:28:25;;;;;;;4.62;3.42;;;;;;;25.00;51.36;98570.88;3991106;72;30646;-20
2021/06/11 11:33:31;;;;;;;3.70;3.40;;;;;;;25.00;51.43;98568.65;3926942;75;43627;-21
2021/06/11 11:38:38;;;;;;;4.25;3.40;;;;;;;25.34;49.56;98567.23;3920389;73;44091;-21
2021/06/11 11:43:44;;;;;;;4.85;3.55;;;;;;;25.21;49.60;98576.16;3920557;73;44006;-21
2021/06/11 11:48:52;;;;;;;4.47;3.20;;;;;;;25.23;49.08;98565.69;3914505;75;43687;-21
2021/06/11 11:53:59;;;;;;;4.05;2.67;;;;;;;25.51;49.26;98562.52;3922607;73;44063;-22
2021/06/11 11:59:06;;;;;;;4.28;3.17;;;;;;;25.41;47.81;98562.39;3931836;73;44023;-22
2021/06/11 12:04:14;;;;;;;4.05;3.27;;;;;;;25.38;47.22;98549.06;3923347;75;43721;-22
2021/06/11 12:09:20;;;;;;;4.83;3.30;;;;;;;25.85;48.72;98536.16;3928628;75;43349;-22
2021/06/11 12:14:27;;;;;;;6.25;3.52;;;;;;;26.14;49.48;98536.48;3932330;73;43230;-22
2021/06/11 12:19:33;;;;;;;3.80;3.40;;;;;;;25.97;47.78;98544.31;3927612;75;44748;-22
2021/06/11 12:24:41;;;;;;;3.58;3.27;;;;;;;26.21;46.45;98544.56;3923249;73;44099;-21
2021/06/11 12:29:47;;;;;;;4.65;3.72;;;;;;;26.31;47.55;98533.61;3946845;73;43737;-22
2021/06/11 12:34:54;;;;;;;3.40;3.10;;;;;;;26.02;46.46;98528.88;3921689;75;43991;-22
2021/06/11 12:40:03;;;;;;;3.85;3.10;;;;;;;26.06;49.82;98524.51;3925674;74;44057;-22
2021/06/11 12:45:12;;;;;;;3.15;2.85;;;;;;;26.48;46.89;98525.19;3838579;75;44079;-23
2021/06/11 12:50:18;;;;;;;2.92;2.70;;;;;;;26.48;47.02;98525.19;3932675;75;43378;-22
2021/06/11 12:55:26;;;;;;;3.33;3.08;;;;;;;26.53;46.15;98521.63;3922056;73;43898;-21
2021/06/11 13:00:32;;;;;;;3.33;3.00;;;;;;;26.83;47.05;98509.19;3938030;75;44001;-22
2021/06/11 13:10:53;;;;;;;4.28;3.90;;;;;;;26.51;45.17;98503.13;4004331;73;27247;-19
2021/06/11 13:21:11;;;;;;;3.85;3.30;;;;;;;27.00;45.79;98499.34;3978278;73;27236;-19
2021/06/11 13:26:18;;;;;;;3.67;3.02;;;;;;;27.58;46.73;98500.73;3924189;74;44126;-22
2021/06/11 13:36:38;;;;;;;4.40;2.90;;;;;;;27.76;45.57;98482.80;3984956;73;27103;-19
2021/06/11 13:41:46;;;;;;;3.12;2.92;;;;;;;27.76;45.57;98482.80;3955496;74;44075;-21
2021/06/11 13:46:53;;;;;;;3.42;3.12;;;;;;;28.12;45.24;98482.08;3926025;74;43748;-20
2021/06/11 13:52:00;;;;;;;3.35;3.05;;;;;;;28.37;42.79;98486.79;3951447;74;43418;-20
2021/06/11 13:57:09;;;;;;;3.52;3.20;;;;;;;27.94;44.68;98481.45;3935447;74;43698;-21
2021/06/11 14:02:16;;;;;;;3.58;3.27;;;;;;;27.85;45.38;98469.27;3954553;74;43686;-22
2021/06/11 14:07:24;;;;;;;3.98;3.12;;;;;;;28.29;44.71;98473.50;3851126;76;44018;-21
2021/06/11 14:12:31;;;;;;;3.58;3.10;;;;;;;28.29;44.71;98473.50;3947414;74;43845;-22
2021/06/11 14:17:37;;;;;;;3.75;3.40;;;;;;;28.71;42.77;98472.34;3950243;74;43693;-22
2021/06/11 14:22:44;;;;;;;4.25;3.50;;;;;;;28.51;40.88;98471.84;3854754;75;45180;-23
2021/06/11 14:27:50;;;;;;;3.40;3.10;;;;;;;28.83;43.38;98458.77;3939851;74;44003;-20
2021/06/11 14:32:56;;;;;;;3.30;3.00;;;;;;;28.83;43.38;98458.77;3931117;74;44057;-21
2021/06/11 14:38:03;;;;;;;4.25;3.85;;;;;;;28.10;42.98;98465.75;3830247;76;44480;-21
2021/06/11 14:43:14;;;;;;;3.92;3.58;;;;;;;28.26;44.99;98448.58;3928416;74;43759;-21
2021/06/11 14:48:21;;;;;;;3.65;3.30;;;;;;;28.26;44.99;98448.58;3823198;77;44099;-21
2021/06/11 14:53:32;;;;;;;4.35;3.30;;;;;;;28.42;41.19;98436.08;3915400;74;43864;-24
2021/06/11 14:58:40;;;;;;;3.47;3.17;;;;;;;28.42;41.19;98436.08;3899010;74;43356;-23
2021/06/11 15:03:46;;;;;;;4.78;3.35;;;;;;;28.96;42.57;98431.02;3899532;74;43679;-23
2021/06/11 15:08:52;;;;;;;5.53;3.30;;;;;;;28.65;41.04;98428.28;3891323;75;43290;-22
2021/06/11 15:19:12;;;;;;;3.52;3.22;;;;;;;28.59;42.01;98438.55;3994664;73;27196;-21
2021/06/11 15:24:17;;;;;;;5.03;3.65;;;;;;;28.62;41.59;98424.14;3929118;74;43382;-25
2021/06/11 15:29:25;;;;;;;3.72;3.42;;;;;;;28.53;41.32;98424.44;3928242;74;44070;-26
2021/06/11 15:39:44;;;;;;;4.05;3.37;;;;;;;28.32;43.55;98429.16;3978479;73;27478;-20
2021/06/11 15:44:51;;;;;;;4.87;3.70;;;;;;;28.58;42.71;98426.65;3923855;75;43648;-23
2021/06/11 15:49:58;;;;;;;5.75;3.65;;;;;;;28.85;42.40;98421.89;3924261;75;43662;-21
2021/06/11 16:00:19;;;;;;;4.33;3.92;;;;;;;29.00;42.48;98412.69;3985586;73;27137;-19
2021/06/11 16:05:25;;;;;;;4.05;3.72;;;;;;;29.13;43.65;98416.24;3936068;74;43873;-22
2021/06/11 16:10:31;;;;;;;5.40;3.90;;;;;;;29.00;42.62;98423.24;3938637;74;43968;-24
2021/06/11 16:15:39;;;;;;;5.15;4.12;;;;;;;29.56;42.41;98408.03;3936360;75;44007;-21
2021/06/11 16:20:47;;;;;;;5.45;4.22;;;;;;;29.26;43.45;98412.04;3930581;75;44714;-23
2021/06/11 16:25:54;;;;;;;4.37;3.98;;;;;;;28.79;43.69;98401.67;3936606;74;44014;-29
2021/06/11 16:31:02;;;;;;;4.33;3.98;;;;;;;29.65;42.68;98408.50;3937680;74;43730;-21
2021/06/11 16:36:10;;;;;;;4.62;4.22;;;;;;;29.27;42.86;98403.15;3938470;75;43325;-22
2021/06/11 16:41:17;;;;;;;5.03;3.72;;;;;;;29.49;42.54;98400.02;3931902;74;43493;-21
2021/06/11 16:46:24;;;;;;;3.95;3.65;;;;;;;29.80;42.73;98410.91;3930236;75;43412;-22
2021/06/11 16:56:44;;;;;;;4.40;4.00;;;;;;;29.87;42.15;98400.30;3953143;73;27319;-23
2021/06/11 17:01:50;;;;;;;4.50;4.10;;;;;;;28.89;42.98;98393.31;3897400;74;43453;-24
2021/06/11 17:06:56;;;;;;;3.85;3.45;;;;;;;28.89;42.98;98393.31;3915503;74;43354;-27
2021/06/11 17:12:03;;;;;;;3.72;3.42;;;;;;;29.78;43.10;98390.38;3905179;74;44451;-22
2021/06/11 17:22:21;;;;;;;4.42;4.03;;;;;;;29.10;43.18;98397.42;3997390;73;27221;-21
2021/06/11 17:27:27;;;;;;;3.98;3.58;;;;;;;29.10;43.18;98397.42;3906448;73;44222;-21
2021/06/11 17:37:48;;;;;;;4.67;4.03;;;;;;;28.25;45.78;98394.28;3972758;73;27214;-20
2021/06/11 17:42:58;;;;;;;5.00;4.37;;;;;;;28.22;45.43;98403.70;3898619;75;44471;-22
2021/06/11 17:53:32;;;;;;;4.78;4.00;;;;;;;27.65;47.19;98405.85;3957626;72;27165;-20
2021/06/11 17:58:29;;;;;;;5.12;4.72;;;;;;;27.65;47.19;98405.85;3901738;74;43647;-22
2021/06/11 18:03:35;;;;;;;5.28;4.50;;;;;;;27.25;47.69;98407.37;3902250;75;44491;-22
2021/06/11 18:08:42;;;;;;;4.67;4.25;;;;;;;27.34;47.16;98404.91;3897885;74;43028;-22
2021/06/11 18:13:50;;;;;;;4.45;4.10;;;;;;;27.24;47.50;98408.47;3898846;74;44040;-22
2021/06/11 18:19:02;;;;;;;5.15;4.30;;;;;;;27.33;47.54;98408.78;3830072;75;43831;-22
2021/06/11 18:24:10;;;;;;;4.30;3.90;;;;;;;27.16;50.18;98404.85;3906936;75;43673;-22
2021/06/11 18:29:16;;;;;;;4.40;4.10;;;;;;;26.84;51.60;98401.12;3912336;74;43690;-21
2021/06/11 18:34:22;;;;;;;4.62;4.30;;;;;;;26.57;52.36;98399.84;3840979;76;43494;-22
2021/06/11 18:39:27;;;;;;;4.67;4.25;;;;;;;26.25;53.06;98404.88;3907816;74;43687;-21
2021/06/11 18:44:34;;;;;;;6.30;4.95;;;;;;;26.03;54.36;98398.03;3896552;75;44130;-21
2021/06/11 18:49:44;;;;;;;5.17;4.67;;;;;;;25.88;54.91;98402.88;3885059;74;44112;-22
2021/06/11 18:54:50;;;;;;;5.87;5.37;;;;;;;25.63;55.59;98402.92;3846500;75;43371;-22
2021/06/11 19:00:06;;;;;;;4.45;4.15;;;;;;;25.46;56.29;98401.09;3871916;75;43364;-22
2021/06/11 19:05:15;;;;;;;6.33;5.12;;;;;;;25.46;56.93;98403.03;3837714;75;42820;-21
2021/06/11 19:10:25;;;;;;;5.55;4.70;;;;;;;25.44;58.87;98406.05;3745829;76;44089;-23
2021/06/11 19:15:31;;;;;;;5.60;4.90;;;;;;;25.20;62.44;98402.17;3828494;75;43111;-21
2021/06/11 19:20:38;;;;;;;5.28;4.78;;;;;;;25.03;63.11;98406.91;3825579;75;43889;-21
2021/06/11 19:25:44;;;;;;;4.95;4.50;;;;;;;24.86;64.27;98406.45;3830521;75;43717;-22
2021/06/11 19:30:50;;;;;;;5.33;4.92;;;;;;;24.68;65.82;98408.92;3826629;75;44102;-22
2021/06/11 19:41:13;;;;;;;6.85;5.65;;;;;;;24.37;68.88;98424.98;4000014;72;27179;-21
2021/06/11 19:46:23;;;;;;;6.85;5.87;;;;;;;24.19;70.34;98431.58;3916672;73;44732;-21
2021/06/11 19:51:28;;;;;;;6.75;6.15;;;;;;;23.99;71.48;98431.54;3928074;75;43307;-21
2021/06/11 19:56:34;;;;;;;7.70;5.72;;;;;;;23.83;72.36;98433.16;3921258;73;43389;-22
2021/06/11 20:01:41;;;;;;;7.00;6.30;;;;;;;23.67;73.50;98433.43;3935457;75;43661;-22
2021/06/11 20:06:49;;;;;;;6.80;6.20;;;;;;;23.53;74.48;98433.43;3924448;75;43727;-21
2021/06/11 20:11:55;;;;;;;7.50;6.80;;;;;;;23.39;75.07;98435.09;3926038;73;43693;-22
2021/06/11 20:17:01;;;;;;;12.00;9.73;;;;;;;23.23;76.21;98432.58;3932397;73;44055;-21
2021/06/11 20:22:07;;;;;;;11.30;10.08;;;;;;;23.05;77.88;98440.42;3926192;75;44116;-22
2021/06/11 20:27:16;;;;;;;13.20;11.90;;;;;;;22.85;79.22;98450.42;3936216;73;43448;-21
2021/06/11 20:32:22;;;;;;;14.85;13.45;;;;;;;22.63;79.82;98446.11;3929913;75;43369;-22
2021/06/11 20:37:33;;;;;;;12.18;10.28;;;;;;;22.49;80.56;98455.65;3920167;73;43686;-21
2021/06/11 20:42:36;;;;;;;10.85;9.55;;;;;;;22.49;80.22;98452.35;3922770;73;43056;-21
2021/06/11 20:47:42;;;;;;;14.33;12.82;;;;;;;22.40;81.25;98447.72;3899498;73;44116;-22
2021/06/11 20:52:49;;;;;;;13.58;11.48;;;;;;;22.23;83.26;98448.14;3930655;75;44759;-22
2021/06/11 20:57:56;;;;;;;9.53;8.65;;;;;;;21.94;86.71;98443.83;3912578;74;43421;-21
2021/06/11 21:03:09;;;;;;;10.30;8.65;;;;;;;21.81;87.10;98448.48;3894103;74;44713;-21
2021/06/11 21:08:14;;;;;;;8.30;7.42;;;;;;;21.68;87.69;98440.45;3896858;75;43314;-22
2021/06/11 21:13:20;;;;;;;9.25;8.50;;;;;;;21.57;88.28;98449.44;3894136;74;43373;-21
2021/06/11 21:18:26;;;;;;;8.30;7.47;;;;;;;21.47;88.57;98446.69;3910654;74;44313;-21
2021/06/11 21:23:33;;;;;;;7.87;7.17;;;;;;;21.33;89.56;98446.59;3895708;74;44061;-22
2021/06/11 21:28:39;;;;;;;8.20;7.50;;;;;;;21.28;89.83;98446.44;3887248;74;43312;-21
2021/06/11 21:33:45;;;;;;;8.85;8.05;;;;;;;21.20;90.44;98449.80;3878338;74;43063;-22
2021/06/11 21:38:50;;;;;;;10.65;9.60;;;;;;;21.08;91.12;98448.35;3883714;75;44080;-22
2021/06/11 21:49:09;;;;;;;12.35;11.33;;;;;;;20.86;93.77;98454.84;4013332;73;27237;-19
2021/06/11 21:54:16;;;;;;;10.70;9.68;;;;;;;20.71;93.34;98449.68;3954756;74;43432;-22
2021/06/11 21:59:22;;;;;;;11.12;10.03;;;;;;;20.70;92.77;98445.81;3941196;74;43417;-22
2021/06/11 22:04:29;;;;;;;12.15;11.05;;;;;;;20.63;93.59;98456.83;3947090;74;43690;-22
2021/06/11 22:09:36;;;;;;;12.60;11.40;;;;;;;20.58;93.89;98452.58;3942516;74;44492;-22
2021/06/11 22:14:42;;;;;;;11.10;10.03;;;;;;;20.46;94.71;98459.30;3938905;74;44081;-21
2021/06/11 22:19:49;;;;;;;11.10;10.10;;;;;;;20.47;94.60;98461.80;3951649;74;44463;-21
2021/06/11 22:24:55;;;;;;;11.55;10.50;;;;;;;20.44;95.48;98460.91;3953432;74;44621;-21
2021/06/11 22:30:01;;;;;;;11.10;10.05;;;;;;;20.37;96.01;98460.66;3941843;74;43682;-21
2021/06/11 22:35:11;;;;;;;11.85;10.72;;;;;;;20.37;96.51;98466.13;3954651;73;44067;-21
2021/06/11 22:40:17;;;;;;;15.23;11.43;;;;;;;20.24;99.10;98462.96;3921616;74;43335;-22
2021/06/11 22:45:23;;;;;;;11.83;10.78;;;;;;;20.11;100.00;98462.55;3930747;74;43486;-21
2021/06/11 22:50:31;;;;;;;14.28;12.82;;;;;;;19.97;100.00;98461.82;3925823;75;44492;-21
2021/06/11 22:55:38;;;;;;;11.08;10.03;;;;;;;19.96;100.00;98462.34;3925304;75;44124;-21
2021/06/11 23:00:44;;;;;;;13.95;12.58;;;;;;;19.90;100.00;98458.28;3923152;74;44054;-21
2021/06/11 23:05:50;;;;;;;13.48;12.28;;;;;;;19.74;100.00;98470.55;3918690;75;44117;-21
2021/06/11 23:10:57;;;;;;;15.28;13.78;;;;;;;19.71;100.00;98461.73;3907918;74;43315;-21
2021/06/11 23:16:04;;;;;;;14.35;13.13;;;;;;;19.58;100.00;98465.08;3917455;75;44112;-21
2021/06/11 23:21:11;;;;;;;13.80;12.40;;;;;;;19.56;100.00;98468.05;3925739;74;43902;-21
2021/06/11 23:26:17;;;;;;;13.53;12.33;;;;;;;19.52;100.00;98458.05;3918423;74;44026;-21
2021/06/11 23:31:23;;;;;;;12.25;11.15;;;;;;;19.55;100.00;98454.06;3914200;75;43403;-21
2021/06/11 23:36:29;;;;;;;14.55;13.25;;;;;;;19.55;100.00;98461.72;3924208;74;44053;-22
2021/06/11 23:41:35;;;;;;;14.53;13.18;;;;;;;19.48;100.00;98450.52;3911967;74;44003;-22
2021/06/11 23:46:41;;;;;;;12.00;10.90;;;;;;;19.43;100.00;98450.34;3927688;74;43457;-22
2021/06/11 23:51:47;;;;;;;12.25;11.15;;;;;;;19.42;100.00;98452.77;3973620;74;44831;-22
2021/06/11 23:56:53;;;;;;;11.22;10.13;;;;;;;19.38;100.00;98440.91;3969107;74;43444;-21
